sensor_id;sensor_type;location;lat;lon;timestamp;P1;durP1;ratioP1;P2;durP2;ratioP2
7957;SDS011;4024;52.172;5.378;2023-05-07T00:01:01;8.70;;;7.90;;
7957;SDS011;4024;52.172;5.378;2023-05-07T00:03:27;8.33;;;7.63;;
7957;SDS011;4024;52.172;5.378;2023-05-07T00:05:53;8.80;;;7.90;;
7957;SDS011;4024;52.172;5.378;2023-05-07T00:08:19;8.23;;;7.10;;
7957;SDS011;4024;52.172;5.378;2023-05-07T00:10:45;8.37;;;7.57;;
7957;SDS011;4024;52.172;5.378;2023-05-07T00:13:11;9.73;;;7.57;;
7957;SDS011;4024;52.172;5.378;2023-05-07T00:15:37;9.97;;;7.67;;
7957;SDS011;4024;52.172;5.378;2023-05-07T00:18:02;8.20;;;7.40;;
7957;SDS011;4024;52.172;5.378;2023-05-07T00:20:28;10.00;;;7.77;;
7957;SDS011;4024;52.172;5.378;2023-05-07T00:22:54;8.60;;;6.83;;
7957;SDS011;4024;52.172;5.378;2023-05-07T00:25:20;8.13;;;7.43;;
7957;SDS011;4024;52.172;5.378;2023-05-07T00:27:45;8.73;;;7.33;;
7957;SDS011;4024;52.172;5.378;2023-05-07T00:30:11;8.57;;;7.67;;
7957;SDS011;4024;52.172;5.378;2023-05-07T00:32:37;8.87;;;7.20;;
7957;SDS011;4024;52.172;5.378;2023-05-07T00:35:04;8.30;;;7.47;;
7957;SDS011;4024;52.172;5.378;2023-05-07T00:37:30;8.53;;;7.63;;
7957;SDS011;4024;52.172;5.378;2023-05-07T00:39:56;8.50;;;7.37;;
7957;SDS011;4024;52.172;5.378;2023-05-07T00:42:22;9.03;;;8.23;;
7957;SDS011;4024;52.172;5.378;2023-05-07T00:44:47;8.03;;;7.33;;
7957;SDS011;4024;52.172;5.378;2023-05-07T00:47:13;8.10;;;7.30;;
7957;SDS011;4024;52.172;5.378;2023-05-07T00:49:43;10.63;;;7.77;;
7957;SDS011;4024;52.172;5.378;2023-05-07T00:52:11;8.87;;;7.97;;
7957;SDS011;4024;52.172;5.378;2023-05-07T00:54:38;7.90;;;7.10;;
7957;SDS011;4024;52.172;5.378;2023-05-07T00:57:05;9.80;;;7.77;;
7957;SDS011;4024;52.172;5.378;2023-05-07T00:59:31;8.60;;;7.80;;
7957;SDS011;4024;52.172;5.378;2023-05-07T01:01:58;9.13;;;8.23;;
7957;SDS011;4024;52.172;5.378;2023-05-07T01:04:24;8.77;;;7.87;;
7957;SDS011;4024;52.172;5.378;2023-05-07T01:06:51;8.63;;;7.63;;
7957;SDS011;4024;52.172;5.378;2023-05-07T01:09:19;10.43;;;8.27;;
7957;SDS011;4024;52.172;5.378;2023-05-07T01:11:45;8.63;;;7.83;;
7957;SDS011;4024;52.172;5.378;2023-05-07T01:14:12;9.30;;;7.83;;
7957;SDS011;4024;52.172;5.378;2023-05-07T01:16:38;7.67;;;6.90;;
7957;SDS011;4024;52.172;5.378;2023-05-07T01:19:07;7.90;;;7.10;;
7957;SDS011;4024;52.172;5.378;2023-05-07T01:21:35;8.73;;;7.83;;
7957;SDS011;4024;52.172;5.378;2023-05-07T01:24:04;8.20;;;7.40;;
7957;SDS011;4024;52.172;5.378;2023-05-07T01:26:30;8.50;;;7.13;;
7957;SDS011;4024;52.172;5.378;2023-05-07T01:28:55;8.83;;;7.90;;
7957;SDS011;4024;52.172;5.378;2023-05-07T01:31:21;9.70;;;8.70;;
7957;SDS011;4024;52.172;5.378;2023-05-07T01:33:49;8.20;;;7.40;;
7957;SDS011;4024;52.172;5.378;2023-05-07T01:36:17;9.20;;;8.30;;
7957;SDS011;4024;52.172;5.378;2023-05-07T01:38:43;8.57;;;7.77;;
7957;SDS011;4024;52.172;5.378;2023-05-07T01:41:11;9.53;;;7.80;;
7957;SDS011;4024;52.172;5.378;2023-05-07T01:43:37;8.70;;;7.90;;
7957;SDS011;4024;52.172;5.378;2023-05-07T01:46:04;8.13;;;7.30;;
7957;SDS011;4024;52.172;5.378;2023-05-07T01:48:31;7.80;;;7.10;;
7957;SDS011;4024;52.172;5.378;2023-05-07T01:50:57;8.20;;;7.40;;
7957;SDS011;4024;52.172;5.378;2023-05-07T01:53:25;9.10;;;8.23;;
7957;SDS011;4024;52.172;5.378;2023-05-07T01:55:53;8.37;;;7.47;;
7957;SDS011;4024;52.172;5.378;2023-05-07T01:58:19;9.00;;;8.10;;
7957;SDS011;4024;52.172;5.378;2023-05-07T02:00:46;8.67;;;7.87;;
7957;SDS011;4024;52.172;5.378;2023-05-07T02:03:11;10.17;;;8.63;;
7957;SDS011;4024;52.172;5.378;2023-05-07T02:05:37;8.57;;;7.87;;
7957;SDS011;4024;52.172;5.378;2023-05-07T02:08:03;9.23;;;8.37;;
7957;SDS011;4024;52.172;5.378;2023-05-07T02:10:28;10.37;;;8.33;;
7957;SDS011;4024;52.172;5.378;2023-05-07T02:12:54;9.10;;;8.23;;
7957;SDS011;4024;52.172;5.378;2023-05-07T02:15:20;10.60;;;8.73;;
7957;SDS011;4024;52.172;5.378;2023-05-07T02:20:43;9.67;;;8.67;;
7957;SDS011;4024;52.172;5.378;2023-05-07T02:23:09;11.00;;;8.80;;
7957;SDS011;4024;52.172;5.378;2023-05-07T02:25:34;10.17;;;8.70;;
7957;SDS011;4024;52.172;5.378;2023-05-07T02:28:00;9.23;;;8.33;;
7957;SDS011;4024;52.172;5.378;2023-05-07T02:30:26;10.13;;;8.47;;
7957;SDS011;4024;52.172;5.378;2023-05-07T02:32:51;9.40;;;8.50;;
7957;SDS011;4024;52.172;5.378;2023-05-07T02:35:17;10.43;;;8.63;;
7957;SDS011;4024;52.172;5.378;2023-05-07T02:37:43;9.47;;;8.47;;
7957;SDS011;4024;52.172;5.378;2023-05-07T02:40:08;9.00;;;8.10;;
7957;SDS011;4024;52.172;5.378;2023-05-07T02:42:35;9.23;;;8.43;;
7957;SDS011;4024;52.172;5.378;2023-05-07T02:45:00;9.80;;;8.80;;
7957;SDS011;4024;52.172;5.378;2023-05-07T02:47:26;12.47;;;9.40;;
7957;SDS011;4024;52.172;5.378;2023-05-07T02:49:53;10.23;;;8.93;;
7957;SDS011;4024;52.172;5.378;2023-05-07T02:52:22;9.57;;;8.67;;
7957;SDS011;4024;52.172;5.378;2023-05-07T02:54:47;10.40;;;9.13;;
7957;SDS011;4024;52.172;5.378;2023-05-07T02:57:13;10.50;;;9.50;;
7957;SDS011;4024;52.172;5.378;2023-05-07T02:59:39;10.13;;;9.10;;
7957;SDS011;4024;52.172;5.378;2023-05-07T03:02:05;9.13;;;8.23;;
7957;SDS011;4024;52.172;5.378;2023-05-07T03:04:31;10.80;;;8.83;;
7957;SDS011;4024;52.172;5.378;2023-05-07T03:06:56;11.33;;;9.20;;
7957;SDS011;4024;52.172;5.378;2023-05-07T03:09:22;10.10;;;9.00;;
7957;SDS011;4024;52.172;5.378;2023-05-07T03:11:47;9.90;;;8.90;;
7957;SDS011;4024;52.172;5.378;2023-05-07T03:14:13;10.67;;;9.57;;
7957;SDS011;4024;52.172;5.378;2023-05-07T03:16:39;10.97;;;9.40;;
7957;SDS011;4024;52.172;5.378;2023-05-07T03:19:06;10.97;;;9.80;;
7957;SDS011;4024;52.172;5.378;2023-05-07T03:21:31;10.37;;;9.00;;
7957;SDS011;4024;52.172;5.378;2023-05-07T03:23:58;11.47;;;9.67;;
7957;SDS011;4024;52.172;5.378;2023-05-07T03:26:26;10.37;;;9.47;;
7957;SDS011;4024;52.172;5.378;2023-05-07T03:28:51;9.97;;;8.90;;
7957;SDS011;4024;52.172;5.378;2023-05-07T03:31:17;10.20;;;9.20;;
7957;SDS011;4024;52.172;5.378;2023-05-07T03:33:53;10.27;;;9.27;;
7957;SDS011;4024;52.172;5.378;2023-05-07T03:36:20;11.00;;;9.67;;
7957;SDS011;4024;52.172;5.378;2023-05-07T03:38:46;11.07;;;9.93;;
7957;SDS011;4024;52.172;5.378;2023-05-07T03:41:12;11.10;;;10.00;;
7957;SDS011;4024;52.172;5.378;2023-05-07T03:43:38;11.27;;;10.17;;
7957;SDS011;4024;52.172;5.378;2023-05-07T03:46:04;10.40;;;9.50;;
7957;SDS011;4024;52.172;5.378;2023-05-07T03:48:29;11.40;;;10.30;;
7957;SDS011;4024;52.172;5.378;2023-05-07T03:50:55;10.80;;;9.67;;
7957;SDS011;4024;52.172;5.378;2023-05-07T03:53:22;11.77;;;10.57;;
7957;SDS011;4024;52.172;5.378;2023-05-07T03:55:47;11.90;;;10.70;;
7957;SDS011;4024;52.172;5.378;2023-05-07T03:58:13;11.67;;;10.27;;
7957;SDS011;4024;52.172;5.378;2023-05-07T04:00:39;11.83;;;10.50;;
7957;SDS011;4024;52.172;5.378;2023-05-07T04:03:05;11.60;;;10.40;;
7957;SDS011;4024;52.172;5.378;2023-05-07T04:05:31;11.93;;;10.67;;
7957;SDS011;4024;52.172;5.378;2023-05-07T04:08:00;12.17;;;10.97;;
7957;SDS011;4024;52.172;5.378;2023-05-07T04:10:26;12.63;;;11.37;;
7957;SDS011;4024;52.172;5.378;2023-05-07T04:12:53;13.10;;;11.70;;
7957;SDS011;4024;52.172;5.378;2023-05-07T04:15:18;13.73;;;12.33;;
7957;SDS011;4024;52.172;5.378;2023-05-07T04:17:44;12.30;;;11.00;;
7957;SDS011;4024;52.172;5.378;2023-05-07T04:20:12;12.10;;;10.90;;
7957;SDS011;4024;52.172;5.378;2023-05-07T04:22:39;11.77;;;10.57;;
7957;SDS011;4024;52.172;5.378;2023-05-07T04:25:05;19.50;;;12.70;;
7957;SDS011;4024;52.172;5.378;2023-05-07T04:27:33;12.63;;;11.33;;
7957;SDS011;4024;52.172;5.378;2023-05-07T04:29:59;13.00;;;11.70;;
7957;SDS011;4024;52.172;5.378;2023-05-07T04:32:25;13.83;;;12.50;;
7957;SDS011;4024;52.172;5.378;2023-05-07T04:34:51;12.70;;;11.50;;
7957;SDS011;4024;52.172;5.378;2023-05-07T04:37:17;13.40;;;12.00;;
7957;SDS011;4024;52.172;5.378;2023-05-07T04:39:43;13.60;;;12.20;;
7957;SDS011;4024;52.172;5.378;2023-05-07T04:42:08;13.63;;;12.17;;
7957;SDS011;4024;52.172;5.378;2023-05-07T04:44:35;13.27;;;12.03;;
7957;SDS011;4024;52.172;5.378;2023-05-07T04:47:02;12.77;;;11.57;;
7957;SDS011;4024;52.172;5.378;2023-05-07T04:49:27;12.80;;;11.50;;
7957;SDS011;4024;52.172;5.378;2023-05-07T04:51:53;13.77;;;12.33;;
7957;SDS011;4024;52.172;5.378;2023-05-07T04:54:19;13.40;;;12.10;;
7957;SDS011;4024;52.172;5.378;2023-05-07T04:56:44;13.47;;;11.70;;
7957;SDS011;4024;52.172;5.378;2023-05-07T04:59:11;12.60;;;11.30;;
7957;SDS011;4024;52.172;5.378;2023-05-07T05:01:37;12.80;;;11.47;;
7957;SDS011;4024;52.172;5.378;2023-05-07T05:04:02;13.30;;;11.60;;
7957;SDS011;4024;52.172;5.378;2023-05-07T05:06:28;12.90;;;11.53;;
7957;SDS011;4024;52.172;5.378;2023-05-07T05:08:54;14.53;;;12.30;;
7957;SDS011;4024;52.172;5.378;2023-05-07T05:11:20;13.50;;;12.20;;
7957;SDS011;4024;52.172;5.378;2023-05-07T05:13:46;14.17;;;12.57;;
7957;SDS011;4024;52.172;5.378;2023-05-07T05:16:14;15.20;;;13.60;;
7957;SDS011;4024;52.172;5.378;2023-05-07T05:18:40;13.43;;;12.07;;
7957;SDS011;4024;52.172;5.378;2023-05-07T05:21:06;15.03;;;13.43;;
7957;SDS011;4024;52.172;5.378;2023-05-07T05:23:31;14.27;;;12.03;;
7957;SDS011;4024;52.172;5.378;2023-05-07T05:25:57;13.13;;;11.87;;
7957;SDS011;4024;52.172;5.378;2023-05-07T05:28:23;13.70;;;12.30;;
7957;SDS011;4024;52.172;5.378;2023-05-07T05:30:49;13.60;;;12.17;;
7957;SDS011;4024;52.172;5.378;2023-05-07T05:33:15;16.10;;;13.37;;
7957;SDS011;4024;52.172;5.378;2023-05-07T05:35:41;14.50;;;13.10;;
7957;SDS011;4024;52.172;5.378;2023-05-07T05:38:07;14.07;;;12.63;;
7957;SDS011;4024;52.172;5.378;2023-05-07T05:40:34;14.80;;;13.30;;
7957;SDS011;4024;52.172;5.378;2023-05-07T05:42:59;14.40;;;12.93;;
7957;SDS011;4024;52.172;5.378;2023-05-07T05:45:25;14.47;;;13.03;;
7957;SDS011;4024;52.172;5.378;2023-05-07T05:47:51;16.13;;;14.43;;
7957;SDS011;4024;52.172;5.378;2023-05-07T05:50:25;15.23;;;13.83;;
7957;SDS011;4024;52.172;5.378;2023-05-07T05:52:51;16.37;;;14.47;;
7957;SDS011;4024;52.172;5.378;2023-05-07T05:55:16;14.97;;;13.27;;
7957;SDS011;4024;52.172;5.378;2023-05-07T05:57:42;15.93;;;14.50;;
7957;SDS011;4024;52.172;5.378;2023-05-07T06:00:08;17.40;;;14.60;;
7957;SDS011;4024;52.172;5.378;2023-05-07T06:02:34;16.53;;;14.93;;
7957;SDS011;4024;52.172;5.378;2023-05-07T06:05:00;17.30;;;14.47;;
7957;SDS011;4024;52.172;5.378;2023-05-07T06:07:25;16.53;;;14.83;;
7957;SDS011;4024;52.172;5.378;2023-05-07T06:09:51;15.57;;;14.13;;
7957;SDS011;4024;52.172;5.378;2023-05-07T06:12:17;16.37;;;14.60;;
7957;SDS011;4024;52.172;5.378;2023-05-07T06:14:43;16.93;;;15.13;;
7957;SDS011;4024;52.172;5.378;2023-05-07T06:17:08;16.80;;;15.10;;
7957;SDS011;4024;52.172;5.378;2023-05-07T06:19:34;18.07;;;15.23;;
7957;SDS011;4024;52.172;5.378;2023-05-07T06:22:01;17.13;;;15.53;;
7957;SDS011;4024;52.172;5.378;2023-05-07T06:24:27;16.13;;;14.43;;
7957;SDS011;4024;52.172;5.378;2023-05-07T06:26:54;16.47;;;14.77;;
7957;SDS011;4024;52.172;5.378;2023-05-07T06:29:20;18.53;;;14.97;;
7957;SDS011;4024;52.172;5.378;2023-05-07T06:31:46;17.80;;;15.97;;
7957;SDS011;4024;52.172;5.378;2023-05-07T06:34:11;17.37;;;15.70;;
7957;SDS011;4024;52.172;5.378;2023-05-07T06:36:39;17.83;;;15.67;;
7957;SDS011;4024;52.172;5.378;2023-05-07T06:39:05;17.23;;;15.57;;
7957;SDS011;4024;52.172;5.378;2023-05-07T06:41:31;17.57;;;15.53;;
7957;SDS011;4024;52.172;5.378;2023-05-07T06:43:57;16.97;;;15.27;;
7957;SDS011;4024;52.172;5.378;2023-05-07T06:46:22;17.30;;;15.60;;
7957;SDS011;4024;52.172;5.378;2023-05-07T06:48:48;18.00;;;16.20;;
7957;SDS011;4024;52.172;5.378;2023-05-07T06:51:16;18.57;;;16.67;;
7957;SDS011;4024;52.172;5.378;2023-05-07T06:53:41;17.93;;;16.23;;
7957;SDS011;4024;52.172;5.378;2023-05-07T06:56:07;18.63;;;16.73;;
7957;SDS011;4024;52.172;5.378;2023-05-07T06:58:32;18.10;;;16.27;;
7957;SDS011;4024;52.172;5.378;2023-05-07T07:00:58;18.17;;;16.57;;
7957;SDS011;4024;52.172;5.378;2023-05-07T07:03:24;18.83;;;16.83;;
7957;SDS011;4024;52.172;5.378;2023-05-07T07:05:52;18.00;;;15.73;;
7957;SDS011;4024;52.172;5.378;2023-05-07T07:08:18;17.27;;;15.67;;
7957;SDS011;4024;52.172;5.378;2023-05-07T07:10:46;19.07;;;17.03;;
7957;SDS011;4024;52.172;5.378;2023-05-07T07:13:12;17.67;;;15.97;;
7957;SDS011;4024;52.172;5.378;2023-05-07T07:15:38;18.50;;;16.00;;
7957;SDS011;4024;52.172;5.378;2023-05-07T07:18:04;18.73;;;16.73;;
7957;SDS011;4024;52.172;5.378;2023-05-07T07:20:29;17.77;;;15.93;;
7957;SDS011;4024;52.172;5.378;2023-05-07T07:22:55;17.90;;;16.10;;
7957;SDS011;4024;52.172;5.378;2023-05-07T07:25:20;17.87;;;16.03;;
7957;SDS011;4024;52.172;5.378;2023-05-07T07:27:46;16.77;;;15.17;;
7957;SDS011;4024;52.172;5.378;2023-05-07T07:30:12;16.93;;;15.23;;
7957;SDS011;4024;52.172;5.378;2023-05-07T07:32:37;18.27;;;16.20;;
7957;SDS011;4024;52.172;5.378;2023-05-07T07:35:03;17.20;;;15.50;;
7957;SDS011;4024;52.172;5.378;2023-05-07T07:37:29;17.43;;;15.73;;
7957;SDS011;4024;52.172;5.378;2023-05-07T07:39:55;18.63;;;16.77;;
7957;SDS011;4024;52.172;5.378;2023-05-07T07:42:21;17.80;;;16.00;;
7957;SDS011;4024;52.172;5.378;2023-05-07T07:44:46;17.93;;;16.23;;
7957;SDS011;4024;52.172;5.378;2023-05-07T07:47:13;16.83;;;15.30;;
7957;SDS011;4024;52.172;5.378;2023-05-07T07:49:38;16.63;;;14.97;;
7957;SDS011;4024;52.172;5.378;2023-05-07T07:52:04;17.70;;;15.97;;
7957;SDS011;4024;52.172;5.378;2023-05-07T07:54:30;18.67;;;16.77;;
7957;SDS011;4024;52.172;5.378;2023-05-07T07:56:56;17.03;;;15.37;;
7957;SDS011;4024;52.172;5.378;2023-05-07T07:59:21;16.73;;;15.17;;
7957;SDS011;4024;52.172;5.378;2023-05-07T08:01:47;17.27;;;15.57;;
7957;SDS011;4024;52.172;5.378;2023-05-07T08:04:15;17.83;;;15.63;;
7957;SDS011;4024;52.172;5.378;2023-05-07T08:06:40;17.87;;;16.10;;
7957;SDS011;4024;52.172;5.378;2023-05-07T08:09:07;17.20;;;15.57;;
7957;SDS011;4024;52.172;5.378;2023-05-07T08:11:33;18.23;;;16.33;;
7957;SDS011;4024;52.172;5.378;2023-05-07T08:13:59;17.93;;;16.33;;
7957;SDS011;4024;52.172;5.378;2023-05-07T08:16:25;17.40;;;15.70;;
7957;SDS011;4024;52.172;5.378;2023-05-07T08:18:51;17.87;;;16.17;;
7957;SDS011;4024;52.172;5.378;2023-05-07T08:21:16;16.83;;;15.03;;
7957;SDS011;4024;52.172;5.378;2023-05-07T08:23:42;17.63;;;15.93;;
7957;SDS011;4024;52.172;5.378;2023-05-07T08:26:08;18.73;;;16.43;;
7957;SDS011;4024;52.172;5.378;2023-05-07T08:28:34;18.20;;;16.40;;
7957;SDS011;4024;52.172;5.378;2023-05-07T08:31:00;18.13;;;16.33;;
7957;SDS011;4024;52.172;5.378;2023-05-07T08:33:26;17.53;;;15.83;;
7957;SDS011;4024;52.172;5.378;2023-05-07T08:35:52;17.97;;;16.27;;
7957;SDS011;4024;52.172;5.378;2023-05-07T08:38:18;18.40;;;16.63;;
7957;SDS011;4024;52.172;5.378;2023-05-07T08:40:44;18.03;;;16.27;;
7957;SDS011;4024;52.172;5.378;2023-05-07T08:43:12;18.00;;;16.30;;
7957;SDS011;4024;52.172;5.378;2023-05-07T08:45:39;18.97;;;17.03;;
7957;SDS011;4024;52.172;5.378;2023-05-07T08:48:14;18.90;;;17.03;;
7957;SDS011;4024;52.172;5.378;2023-05-07T08:50:40;18.87;;;16.97;;
7957;SDS011;4024;52.172;5.378;2023-05-07T08:53:06;19.63;;;17.73;;
7957;SDS011;4024;52.172;5.378;2023-05-07T08:55:32;20.13;;;18.17;;
7957;SDS011;4024;52.172;5.378;2023-05-07T08:57:58;20.47;;;18.37;;
7957;SDS011;4024;52.172;5.378;2023-05-07T09:00:24;20.63;;;18.63;;
7957;SDS011;4024;52.172;5.378;2023-05-07T09:02:52;19.83;;;17.77;;
7957;SDS011;4024;52.172;5.378;2023-05-07T09:05:18;20.17;;;18.13;;
7957;SDS011;4024;52.172;5.378;2023-05-07T09:07:45;20.50;;;18.57;;
7957;SDS011;4024;52.172;5.378;2023-05-07T09:10:11;20.23;;;18.27;;
7957;SDS011;4024;52.172;5.378;2023-05-07T09:12:38;21.20;;;19.20;;
7957;SDS011;4024;52.172;5.378;2023-05-07T09:15:04;23.00;;;18.47;;
7957;SDS011;4024;52.172;5.378;2023-05-07T09:17:30;21.33;;;19.33;;
7957;SDS011;4024;52.172;5.378;2023-05-07T09:19:56;20.70;;;18.67;;
7957;SDS011;4024;52.172;5.378;2023-05-07T09:22:26;20.97;;;18.93;;
7957;SDS011;4024;52.172;5.378;2023-05-07T09:24:52;22.00;;;19.10;;
7957;SDS011;4024;52.172;5.378;2023-05-07T09:27:18;20.50;;;18.40;;
7957;SDS011;4024;52.172;5.378;2023-05-07T09:29:44;21.17;;;19.07;;
7957;SDS011;4024;52.172;5.378;2023-05-07T09:32:10;20.23;;;18.30;;
7957;SDS011;4024;52.172;5.378;2023-05-07T09:34:36;19.90;;;17.97;;
7957;SDS011;4024;52.172;5.378;2023-05-07T09:37:02;20.33;;;18.33;;
7957;SDS011;4024;52.172;5.378;2023-05-07T09:39:44;22.10;;;17.30;;
7957;SDS011;4024;52.172;5.378;2023-05-07T09:42:12;19.27;;;17.30;;
7957;SDS011;4024;52.172;5.378;2023-05-07T09:44:39;19.13;;;17.10;;
7957;SDS011;4024;52.172;5.378;2023-05-07T09:47:06;18.03;;;16.23;;
7957;SDS011;4024;52.172;5.378;2023-05-07T09:49:35;16.93;;;15.23;;
7957;SDS011;4024;52.172;5.378;2023-05-07T09:52:03;16.67;;;14.87;;
7957;SDS011;4024;52.172;5.378;2023-05-07T09:54:33;15.77;;;14.07;;
7957;SDS011;4024;52.172;5.378;2023-05-07T09:57:03;16.90;;;15.10;;
7957;SDS011;4024;52.172;5.378;2023-05-07T09:59:31;16.13;;;14.43;;
7957;SDS011;4024;52.172;5.378;2023-05-07T10:01:58;14.93;;;13.50;;
7957;SDS011;4024;52.172;5.378;2023-05-07T10:04:28;15.80;;;14.17;;
7957;SDS011;4024;52.172;5.378;2023-05-07T10:06:54;14.73;;;13.23;;
7957;SDS011;4024;52.172;5.378;2023-05-07T10:09:21;13.80;;;12.33;;
7957;SDS011;4024;52.172;5.378;2023-05-07T10:11:51;15.20;;;13.47;;
7957;SDS011;4024;52.172;5.378;2023-05-07T10:14:17;14.77;;;12.87;;
7957;SDS011;4024;52.172;5.378;2023-05-07T10:16:45;13.73;;;12.30;;
7957;SDS011;4024;52.172;5.378;2023-05-07T10:19:12;15.50;;;11.47;;
7957;SDS011;4024;52.172;5.378;2023-05-07T10:21:39;11.57;;;10.33;;
7957;SDS011;4024;52.172;5.378;2023-05-07T10:24:14;10.37;;;9.33;;
7957;SDS011;4024;52.172;5.378;2023-05-07T10:26:47;10.43;;;9.33;;
7957;SDS011;4024;52.172;5.378;2023-05-07T10:29:30;10.07;;;8.87;;
7957;SDS011;4024;52.172;5.378;2023-05-07T10:34:40;12.03;;;10.70;;
7957;SDS011;4024;52.172;5.378;2023-05-07T10:37:10;12.40;;;10.23;;
7957;SDS011;4024;52.172;5.378;2023-05-07T10:39:37;11.70;;;9.87;;
7957;SDS011;4024;52.172;5.378;2023-05-07T10:42:09;10.93;;;9.83;;
7957;SDS011;4024;52.172;5.378;2023-05-07T10:44:38;13.10;;;10.33;;
7957;SDS011;4024;52.172;5.378;2023-05-07T10:52:14;12.97;;;11.77;;
7957;SDS011;4024;52.172;5.378;2023-05-07T10:54:41;12.67;;;11.37;;
7957;SDS011;4024;52.172;5.378;2023-05-07T10:59:56;13.17;;;11.83;;
7957;SDS011;4024;52.172;5.378;2023-05-07T11:02:22;13.03;;;11.77;;
7957;SDS011;4024;52.172;5.378;2023-05-07T11:07:55;12.87;;;11.67;;
7957;SDS011;4024;52.172;5.378;2023-05-07T11:10:21;12.13;;;10.93;;
7957;SDS011;4024;52.172;5.378;2023-05-07T11:12:50;12.97;;;11.37;;
7957;SDS011;4024;52.172;5.378;2023-05-07T11:15:33;13.43;;;12.03;;
7957;SDS011;4024;52.172;5.378;2023-05-07T11:18:00;14.20;;;12.70;;
7957;SDS011;4024;52.172;5.378;2023-05-07T11:26:04;13.90;;;12.30;;
7957;SDS011;4024;52.172;5.378;2023-05-07T11:28:35;13.40;;;11.93;;
7957;SDS011;4024;52.172;5.378;2023-05-07T11:31:03;14.17;;;12.83;;
7957;SDS011;4024;52.172;5.378;2023-05-07T11:33:29;14.27;;;12.73;;
7957;SDS011;4024;52.172;5.378;2023-05-07T11:35:55;14.73;;;13.20;;
7957;SDS011;4024;52.172;5.378;2023-05-07T11:38:22;15.53;;;12.80;;
7957;SDS011;4024;52.172;5.378;2023-05-07T11:43:20;15.00;;;13.07;;
7957;SDS011;4024;52.172;5.378;2023-05-07T11:45:46;14.33;;;12.90;;
7957;SDS011;4024;52.172;5.378;2023-05-07T11:48:14;14.20;;;11.90;;
7957;SDS011;4024;52.172;5.378;2023-05-07T11:53:38;14.13;;;12.50;;
7957;SDS011;4024;52.172;5.378;2023-05-07T11:56:11;13.33;;;11.53;;
7957;SDS011;4024;52.172;5.378;2023-05-07T11:58:39;14.33;;;12.93;;
7957;SDS011;4024;52.172;5.378;2023-05-07T12:01:07;11.83;;;10.73;;
7957;SDS011;4024;52.172;5.378;2023-05-07T12:03:34;13.33;;;12.03;;
7957;SDS011;4024;52.172;5.378;2023-05-07T12:06:02;13.67;;;11.87;;
7957;SDS011;4024;52.172;5.378;2023-05-07T12:08:30;13.27;;;11.67;;
7957;SDS011;4024;52.172;5.378;2023-05-07T12:10:56;14.13;;;12.77;;
7957;SDS011;4024;52.172;5.378;2023-05-07T12:13:22;16.07;;;13.00;;
7957;SDS011;4024;52.172;5.378;2023-05-07T12:15:53;17.17;;;13.33;;
7957;SDS011;4024;52.172;5.378;2023-05-07T12:18:20;15.03;;;13.53;;
7957;SDS011;4024;52.172;5.378;2023-05-07T12:20:46;14.50;;;13.10;;
7957;SDS011;4024;52.172;5.378;2023-05-07T12:23:12;14.50;;;13.10;;
7957;SDS011;4024;52.172;5.378;2023-05-07T12:25:39;14.33;;;12.93;;
7957;SDS011;4024;52.172;5.378;2023-05-07T12:28:05;14.53;;;13.13;;
7957;SDS011;4024;52.172;5.378;2023-05-07T12:30:36;15.93;;;14.27;;
7957;SDS011;4024;52.172;5.378;2023-05-07T12:33:03;15.90;;;14.13;;
7957;SDS011;4024;52.172;5.378;2023-05-07T12:35:29;18.53;;;14.87;;
7957;SDS011;4024;52.172;5.378;2023-05-07T12:37:56;15.23;;;13.73;;
7957;SDS011;4024;52.172;5.378;2023-05-07T12:40:24;16.43;;;14.83;;
7957;SDS011;4024;52.172;5.378;2023-05-07T12:43:00;15.67;;;13.77;;
7957;SDS011;4024;52.172;5.378;2023-05-07T12:45:26;15.07;;;13.27;;
7957;SDS011;4024;52.172;5.378;2023-05-07T12:47:51;15.60;;;13.97;;
7957;SDS011;4024;52.172;5.378;2023-05-07T12:50:17;14.40;;;12.93;;
7957;SDS011;4024;52.172;5.378;2023-05-07T12:52:43;15.67;;;12.07;;
7957;SDS011;4024;52.172;5.378;2023-05-07T12:55:14;14.03;;;12.43;;
7957;SDS011;4024;52.172;5.378;2023-05-07T12:57:45;13.77;;;12.37;;
7957;SDS011;4024;52.172;5.378;2023-05-07T13:00:13;13.83;;;12.43;;
7957;SDS011;4024;52.172;5.378;2023-05-07T13:02:40;12.03;;;10.30;;
7957;SDS011;4024;52.172;5.378;2023-05-07T13:05:07;15.80;;;13.10;;
7957;SDS011;4024;52.172;5.378;2023-05-07T13:07:33;14.60;;;12.23;;
7957;SDS011;4024;52.172;5.378;2023-05-07T13:09:59;15.10;;;12.27;;
7957;SDS011;4024;52.172;5.378;2023-05-07T13:12:25;13.50;;;12.10;;
7957;SDS011;4024;52.172;5.378;2023-05-07T13:14:50;12.43;;;11.20;;
7957;SDS011;4024;52.172;5.378;2023-05-07T13:17:16;12.97;;;11.67;;
7957;SDS011;4024;52.172;5.378;2023-05-07T13:19:43;12.40;;;11.10;;
7957;SDS011;4024;52.172;5.378;2023-05-07T13:22:09;13.27;;;9.90;;
7957;SDS011;4024;52.172;5.378;2023-05-07T13:24:34;12.53;;;10.30;;
7957;SDS011;4024;52.172;5.378;2023-05-07T13:27:00;10.10;;;9.13;;
7957;SDS011;4024;52.172;5.378;2023-05-07T13:29:26;10.60;;;8.27;;
7957;SDS011;4024;52.172;5.378;2023-05-07T13:31:58;10.80;;;9.40;;
7957;SDS011;4024;52.172;5.378;2023-05-07T13:34:24;10.50;;;8.93;;
7957;SDS011;4024;52.172;5.378;2023-05-07T13:36:49;10.03;;;8.10;;
7957;SDS011;4024;52.172;5.378;2023-05-07T13:39:16;12.90;;;10.00;;
7957;SDS011;4024;52.172;5.378;2023-05-07T13:41:42;11.23;;;10.03;;
7957;SDS011;4024;52.172;5.378;2023-05-07T13:44:07;11.23;;;8.97;;
7957;SDS011;4024;52.172;5.378;2023-05-07T13:46:33;10.67;;;9.37;;
7957;SDS011;4024;52.172;5.378;2023-05-07T13:48:59;11.13;;;9.67;;
7957;SDS011;4024;52.172;5.378;2023-05-07T13:51:25;13.13;;;10.77;;
7957;SDS011;4024;52.172;5.378;2023-05-07T13:53:51;10.90;;;9.37;;
7957;SDS011;4024;52.172;5.378;2023-05-07T13:56:17;12.30;;;10.37;;
7957;SDS011;4024;52.172;5.378;2023-05-07T13:58:43;11.33;;;9.30;;
7957;SDS011;4024;52.172;5.378;2023-05-07T14:01:08;12.67;;;11.20;;
7957;SDS011;4024;52.172;5.378;2023-05-07T14:03:34;12.83;;;10.90;;
7957;SDS011;4024;52.172;5.378;2023-05-07T14:06:03;12.80;;;11.50;;
7957;SDS011;4024;52.172;5.378;2023-05-07T14:08:28;12.97;;;11.10;;
7957;SDS011;4024;52.172;5.378;2023-05-07T14:10:54;13.60;;;12.13;;
7957;SDS011;4024;52.172;5.378;2023-05-07T14:13:22;13.47;;;12.10;;
7957;SDS011;4024;52.172;5.378;2023-05-07T14:15:48;16.07;;;12.20;;
7957;SDS011;4024;52.172;5.378;2023-05-07T14:18:14;13.47;;;12.07;;
7957;SDS011;4024;52.172;5.378;2023-05-07T14:20:40;13.37;;;11.93;;
7957;SDS011;4024;52.172;5.378;2023-05-07T14:23:08;12.93;;;11.57;;
7957;SDS011;4024;52.172;5.378;2023-05-07T14:25:33;12.97;;;11.50;;
7957;SDS011;4024;52.172;5.378;2023-05-07T14:28:00;15.00;;;13.20;;
7957;SDS011;4024;52.172;5.378;2023-05-07T14:30:26;15.70;;;12.93;;
7957;SDS011;4024;52.172;5.378;2023-05-07T14:32:51;15.50;;;12.53;;
7957;SDS011;4024;52.172;5.378;2023-05-07T14:35:18;14.67;;;12.70;;
7957;SDS011;4024;52.172;5.378;2023-05-07T14:37:44;14.90;;;11.80;;
7957;SDS011;4024;52.172;5.378;2023-05-07T14:40:10;14.17;;;11.77;;
7957;SDS011;4024;52.172;5.378;2023-05-07T14:42:36;15.27;;;12.67;;
7957;SDS011;4024;52.172;5.378;2023-05-07T14:45:01;13.67;;;11.73;;
7957;SDS011;4024;52.172;5.378;2023-05-07T14:47:27;14.23;;;12.10;;
7957;SDS011;4024;52.172;5.378;2023-05-07T14:49:53;14.93;;;12.30;;
7957;SDS011;4024;52.172;5.378;2023-05-07T14:52:19;14.07;;;12.57;;
7957;SDS011;4024;52.172;5.378;2023-05-07T14:54:45;14.70;;;13.13;;
7957;SDS011;4024;52.172;5.378;2023-05-07T14:57:11;13.77;;;12.37;;
7957;SDS011;4024;52.172;5.378;2023-05-07T14:59:39;13.23;;;11.93;;
7957;SDS011;4024;52.172;5.378;2023-05-07T15:02:06;15.00;;;12.80;;
7957;SDS011;4024;52.172;5.378;2023-05-07T15:04:32;14.93;;;12.30;;
7957;SDS011;4024;52.172;5.378;2023-05-07T15:07:03;12.73;;;11.43;;
7957;SDS011;4024;52.172;5.378;2023-05-07T15:09:29;13.53;;;12.13;;
7957;SDS011;4024;52.172;5.378;2023-05-07T15:11:55;14.23;;;11.77;;
7957;SDS011;4024;52.172;5.378;2023-05-07T15:14:21;11.20;;;10.00;;
7957;SDS011;4024;52.172;5.378;2023-05-07T15:16:47;12.13;;;10.83;;